sensor_id;sensor_type;location;lat;lon;timestamp;P1;durP1;ratioP1;P2;durP2;ratioP2
46777;SDS011;32536;47.128;8.746;2023-03-01T00:01:27;7.50;;;3.55;;
46777;SDS011;32536;47.128;8.746;2023-03-01T00:03:56;7.05;;;3.63;;
46777;SDS011;32536;47.128;8.746;2023-03-01T00:06:25;9.45;;;3.58;;
46777;SDS011;32536;47.128;8.746;2023-03-01T00:08:53;6.63;;;3.15;;
46777;SDS011;32536;47.128;8.746;2023-03-01T00:11:24;8.00;;;3.72;;
46777;SDS011;32536;47.128;8.746;2023-03-01T00:13:55;7.68;;;3.72;;
46777;SDS011;32536;47.128;8.746;2023-03-01T00:16:29;6.25;;;2.88;;
46777;SDS011;32536;47.128;8.746;2023-03-01T00:19:01;5.15;;;2.10;;
46777;SDS011;32536;47.128;8.746;2023-03-01T00:21:29;5.47;;;2.65;;
46777;SDS011;32536;47.128;8.746;2023-03-01T00:23:56;7.00;;;3.63;;
46777;SDS011;32536;47.128;8.746;2023-03-01T00:26:24;8.27;;;3.67;;
46777;SDS011;32536;47.128;8.746;2023-03-01T00:28:51;8.77;;;4.15;;
46777;SDS011;32536;47.128;8.746;2023-03-01T00:31:20;5.13;;;2.58;;
46777;SDS011;32536;47.128;8.746;2023-03-01T00:33:51;6.43;;;3.55;;
46777;SDS011;32536;47.128;8.746;2023-03-01T00:36:23;6.35;;;3.25;;
46777;SDS011;32536;47.128;8.746;2023-03-01T00:38:52;7.57;;;4.13;;
46777;SDS011;32536;47.128;8.746;2023-03-01T00:41:19;7.47;;;3.90;;
46777;SDS011;32536;47.128;8.746;2023-03-01T00:43:52;9.50;;;4.13;;
46777;SDS011;32536;47.128;8.746;2023-03-01T00:46:21;7.80;;;3.78;;
46777;SDS011;32536;47.128;8.746;2023-03-01T00:48:51;7.50;;;3.78;;
46777;SDS011;32536;47.128;8.746;2023-03-01T00:51:19;6.95;;;2.88;;
46777;SDS011;32536;47.128;8.746;2023-03-01T00:53:50;8.23;;;3.60;;
46777;SDS011;32536;47.128;8.746;2023-03-01T00:56:19;7.20;;;3.10;;
46777;SDS011;32536;47.128;8.746;2023-03-01T00:58:46;6.35;;;3.28;;
46777;SDS011;32536;47.128;8.746;2023-03-01T01:01:18;5.00;;;2.55;;
46777;SDS011;32536;47.128;8.746;2023-03-01T01:06:37;7.55;;;3.33;;
46777;SDS011;32536;47.128;8.746;2023-03-01T01:09:11;6.53;;;3.05;;
46777;SDS011;32536;47.128;8.746;2023-03-01T01:11:49;7.50;;;2.85;;
46777;SDS011;32536;47.128;8.746;2023-03-01T01:14:17;6.13;;;2.65;;
46777;SDS011;32536;47.128;8.746;2023-03-01T01:16:45;8.02;;;3.50;;
46777;SDS011;32536;47.128;8.746;2023-03-01T01:19:12;9.10;;;4.25;;
46777;SDS011;32536;47.128;8.746;2023-03-01T01:21:39;7.03;;;4.10;;
46777;SDS011;32536;47.128;8.746;2023-03-01T01:24:08;6.63;;;3.08;;
46777;SDS011;32536;47.128;8.746;2023-03-01T01:26:35;6.43;;;3.35;;
46777;SDS011;32536;47.128;8.746;2023-03-01T01:29:03;6.85;;;3.58;;
46777;SDS011;32536;47.128;8.746;2023-03-01T01:31:31;7.75;;;3.50;;
46777;SDS011;32536;47.128;8.746;2023-03-01T01:34:00;7.45;;;3.88;;
46777;SDS011;32536;47.128;8.746;2023-03-01T01:36:29;6.78;;;3.42;;
46777;SDS011;32536;47.128;8.746;2023-03-01T01:38:56;6.40;;;3.88;;
46777;SDS011;32536;47.128;8.746;2023-03-01T01:41:24;5.50;;;3.00;;
46777;SDS011;32536;47.128;8.746;2023-03-01T01:46:44;10.30;;;5.05;;
46777;SDS011;32536;47.128;8.746;2023-03-01T01:52:34;14.48;;;7.55;;
46777;SDS011;32536;47.128;8.746;2023-03-01T01:55:09;12.75;;;6.30;;
46777;SDS011;32536;47.128;8.746;2023-03-01T01:57:41;13.10;;;6.45;;
46777;SDS011;32536;47.128;8.746;2023-03-01T02:00:18;11.65;;;5.93;;
46777;SDS011;32536;47.128;8.746;2023-03-01T02:02:49;10.50;;;5.30;;
46777;SDS011;32536;47.128;8.746;2023-03-01T02:08:14;11.57;;;6.47;;
46777;SDS011;32536;47.128;8.746;2023-03-01T02:10:45;9.52;;;4.75;;
46777;SDS011;32536;47.128;8.746;2023-03-01T02:13:13;12.15;;;6.05;;
46777;SDS011;32536;47.128;8.746;2023-03-01T02:15:40;13.38;;;5.97;;
46777;SDS011;32536;47.128;8.746;2023-03-01T02:18:10;13.32;;;6.07;;
46777;SDS011;32536;47.128;8.746;2023-03-01T02:20:51;11.90;;;6.13;;
46777;SDS011;32536;47.128;8.746;2023-03-01T02:23:38;12.50;;;6.03;;
46777;SDS011;32536;47.128;8.746;2023-03-01T02:29:07;11.48;;;5.40;;
46777;SDS011;32536;47.128;8.746;2023-03-01T02:31:33;10.85;;;5.53;;
46777;SDS011;32536;47.128;8.746;2023-03-01T02:34:07;13.25;;;6.70;;
46777;SDS011;32536;47.128;8.746;2023-03-01T02:36:43;9.63;;;4.88;;
46777;SDS011;32536;47.128;8.746;2023-03-01T02:39:22;9.73;;;4.53;;
46777;SDS011;32536;47.128;8.746;2023-03-01T02:42:09;10.63;;;4.82;;
46777;SDS011;32536;47.128;8.746;2023-03-01T02:44:41;8.93;;;3.88;;
46777;SDS011;32536;47.128;8.746;2023-03-01T02:47:08;10.02;;;4.65;;
46777;SDS011;32536;47.128;8.746;2023-03-01T02:49:35;10.10;;;4.97;;
46777;SDS011;32536;47.128;8.746;2023-03-01T02:55:11;6.00;;;3.00;;
46777;SDS011;32536;47.128;8.746;2023-03-01T02:57:41;8.93;;;4.90;;
46777;SDS011;32536;47.128;8.746;2023-03-01T03:00:12;9.32;;;4.43;;
46777;SDS011;32536;47.128;8.746;2023-03-01T03:02:53;9.30;;;4.15;;
46777;SDS011;32536;47.128;8.746;2023-03-01T03:05:23;8.75;;;4.50;;
46777;SDS011;32536;47.128;8.746;2023-03-01T03:08:07;9.35;;;4.47;;
46777;SDS011;32536;47.128;8.746;2023-03-01T03:10:36;9.50;;;5.22;;
46777;SDS011;32536;47.128;8.746;2023-03-01T03:13:08;12.77;;;5.38;;
46777;SDS011;32536;47.128;8.746;2023-03-01T03:15:39;10.73;;;4.47;;
46777;SDS011;32536;47.128;8.746;2023-03-01T03:18:08;10.13;;;4.38;;
46777;SDS011;32536;47.128;8.746;2023-03-01T03:20:41;10.13;;;5.47;;
46777;SDS011;32536;47.128;8.746;2023-03-01T03:23:09;12.82;;;5.68;;
46777;SDS011;32536;47.128;8.746;2023-03-01T03:25:37;10.38;;;5.25;;
46777;SDS011;32536;47.128;8.746;2023-03-01T03:28:04;8.77;;;4.10;;
46777;SDS011;32536;47.128;8.746;2023-03-01T03:30:36;9.30;;;3.90;;
46777;SDS011;32536;47.128;8.746;2023-03-01T03:33:06;10.73;;;5.07;;
46777;SDS011;32536;47.128;8.746;2023-03-01T03:35:43;12.30;;;5.82;;
46777;SDS011;32536;47.128;8.746;2023-03-01T03:38:13;12.50;;;5.47;;
46777;SDS011;32536;47.128;8.746;2023-03-01T03:40:44;11.27;;;5.53;;
46777;SDS011;32536;47.128;8.746;2023-03-01T03:43:30;8.38;;;4.15;;
46777;SDS011;32536;47.128;8.746;2023-03-01T03:46:00;11.73;;;5.35;;
46777;SDS011;32536;47.128;8.746;2023-03-01T03:48:34;11.02;;;4.30;;
46777;SDS011;32536;47.128;8.746;2023-03-01T03:51:04;11.48;;;5.03;;
46777;SDS011;32536;47.128;8.746;2023-03-01T03:53:32;12.75;;;5.50;;
46777;SDS011;32536;47.128;8.746;2023-03-01T03:55:59;9.70;;;4.82;;
46777;SDS011;32536;47.128;8.746;2023-03-01T03:58:26;12.15;;;6.07;;
46777;SDS011;32536;47.128;8.746;2023-03-01T04:00:54;10.80;;;5.45;;
46777;SDS011;32536;47.128;8.746;2023-03-01T04:03:23;10.82;;;5.20;;
46777;SDS011;32536;47.128;8.746;2023-03-01T04:05:52;11.45;;;4.85;;
46777;SDS011;32536;47.128;8.746;2023-03-01T04:08:20;10.60;;;5.07;;
46777;SDS011;32536;47.128;8.746;2023-03-01T04:10:51;12.07;;;5.75;;
46777;SDS011;32536;47.128;8.746;2023-03-01T04:13:46;9.98;;;4.20;;
46777;SDS011;32536;47.128;8.746;2023-03-01T04:16:13;9.38;;;4.47;;
46777;SDS011;32536;47.128;8.746;2023-03-01T04:18:40;7.13;;;2.92;;
46777;SDS011;32536;47.128;8.746;2023-03-01T04:21:06;7.72;;;3.90;;
46777;SDS011;32536;47.128;8.746;2023-03-01T04:23:33;6.88;;;3.45;;
46777;SDS011;32536;47.128;8.746;2023-03-01T04:26:00;8.02;;;3.85;;
46777;SDS011;32536;47.128;8.746;2023-03-01T04:30:57;8.45;;;4.38;;
46777;SDS011;32536;47.128;8.746;2023-03-01T04:33:30;8.15;;;4.22;;
46777;SDS011;32536;47.128;8.746;2023-03-01T04:35:57;6.20;;;3.22;;
46777;SDS011;32536;47.128;8.746;2023-03-01T04:38:23;11.52;;;5.80;;
46777;SDS011;32536;47.128;8.746;2023-03-01T04:40:50;13.52;;;4.70;;
46777;SDS011;32536;47.128;8.746;2023-03-01T04:43:17;8.93;;;4.43;;
46777;SDS011;32536;47.128;8.746;2023-03-01T04:45:44;10.23;;;4.97;;
46777;SDS011;32536;47.128;8.746;2023-03-01T04:48:10;13.95;;;5.70;;
46777;SDS011;32536;47.128;8.746;2023-03-01T04:50:37;13.85;;;6.15;;
46777;SDS011;32536;47.128;8.746;2023-03-01T04:53:04;9.57;;;4.53;;
46777;SDS011;32536;47.128;8.746;2023-03-01T04:55:31;12.90;;;5.50;;
46777;SDS011;32536;47.128;8.746;2023-03-01T04:57:57;13.65;;;6.53;;
46777;SDS011;32536;47.128;8.746;2023-03-01T05:00:24;12.30;;;5.97;;
46777;SDS011;32536;47.128;8.746;2023-03-01T05:02:52;10.70;;;5.35;;
46777;SDS011;32536;47.128;8.746;2023-03-01T05:05:29;10.63;;;4.38;;
46777;SDS011;32536;47.128;8.746;2023-03-01T05:08:15;10.10;;;4.78;;
46777;SDS011;32536;47.128;8.746;2023-03-01T05:10:49;8.77;;;4.60;;
46777;SDS011;32536;47.128;8.746;2023-03-01T05:13:18;11.52;;;5.20;;
46777;SDS011;32536;47.128;8.746;2023-03-01T05:15:59;12.13;;;5.18;;
46777;SDS011;32536;47.128;8.746;2023-03-01T05:18:29;13.55;;;5.20;;
46777;SDS011;32536;47.128;8.746;2023-03-01T05:21:06;9.32;;;4.45;;
46777;SDS011;32536;47.128;8.746;2023-03-01T05:23:38;10.43;;;4.78;;
46777;SDS011;32536;47.128;8.746;2023-03-01T05:26:05;10.73;;;4.93;;
46777;SDS011;32536;47.128;8.746;2023-03-01T05:28:33;12.10;;;4.53;;
46777;SDS011;32536;47.128;8.746;2023-03-01T05:31:01;9.82;;;3.38;;
46777;SDS011;32536;47.128;8.746;2023-03-01T05:33:27;9.68;;;5.60;;
46777;SDS011;32536;47.128;8.746;2023-03-01T05:35:54;10.68;;;4.68;;
46777;SDS011;32536;47.128;8.746;2023-03-01T05:38:26;11.18;;;4.45;;
46777;SDS011;32536;47.128;8.746;2023-03-01T05:40:53;8.98;;;3.85;;
46777;SDS011;32536;47.128;8.746;2023-03-01T05:43:20;10.63;;;4.80;;
46777;SDS011;32536;47.128;8.746;2023-03-01T05:45:46;10.73;;;5.28;;
46777;SDS011;32536;47.128;8.746;2023-03-01T05:48:13;10.57;;;4.85;;
46777;SDS011;32536;47.128;8.746;2023-03-01T05:50:42;9.13;;;4.05;;
46777;SDS011;32536;47.128;8.746;2023-03-01T05:53:20;10.82;;;4.57;;
46777;SDS011;32536;47.128;8.746;2023-03-01T05:55:46;11.10;;;4.55;;
46777;SDS011;32536;47.128;8.746;2023-03-01T05:58:19;11.13;;;4.75;;
46777;SDS011;32536;47.128;8.746;2023-03-01T06:00:47;11.77;;;4.90;;
46777;SDS011;32536;47.128;8.746;2023-03-01T06:03:16;12.73;;;5.18;;
46777;SDS011;32536;47.128;8.746;2023-03-01T06:05:44;12.57;;;5.63;;
46777;SDS011;32536;47.128;8.746;2023-03-01T06:08:20;9.00;;;4.13;;
46777;SDS011;32536;47.128;8.746;2023-03-01T06:10:47;12.20;;;6.22;;
46777;SDS011;32536;47.128;8.746;2023-03-01T06:13:14;11.75;;;5.57;;
46777;SDS011;32536;47.128;8.746;2023-03-01T06:15:41;12.93;;;5.05;;
46777;SDS011;32536;47.128;8.746;2023-03-01T06:18:08;8.30;;;4.40;;
46777;SDS011;32536;47.128;8.746;2023-03-01T06:20:35;11.07;;;4.70;;
46777;SDS011;32536;47.128;8.746;2023-03-01T06:23:01;10.18;;;4.65;;
46777;SDS011;32536;47.128;8.746;2023-03-01T06:25:28;9.90;;;4.72;;
46777;SDS011;32536;47.128;8.746;2023-03-01T06:27:55;9.38;;;4.40;;
46777;SDS011;32536;47.128;8.746;2023-03-01T06:30:23;11.57;;;5.40;;
46777;SDS011;32536;47.128;8.746;2023-03-01T06:32:51;12.40;;;5.13;;
46777;SDS011;32536;47.128;8.746;2023-03-01T06:35:26;12.15;;;5.30;;
46777;SDS011;32536;47.128;8.746;2023-03-01T06:37:57;8.93;;;4.20;;
46777;SDS011;32536;47.128;8.746;2023-03-01T06:40:26;11.07;;;5.10;;
46777;SDS011;32536;47.128;8.746;2023-03-01T06:42:53;9.98;;;4.82;;
46777;SDS011;32536;47.128;8.746;2023-03-01T06:45:20;10.98;;;4.90;;
46777;SDS011;32536;47.128;8.746;2023-03-01T06:47:47;10.23;;;4.30;;
46777;SDS011;32536;47.128;8.746;2023-03-01T06:50:14;9.88;;;4.68;;
46777;SDS011;32536;47.128;8.746;2023-03-01T06:52:42;11.48;;;5.68;;
46777;SDS011;32536;47.128;8.746;2023-03-01T06:55:10;14.07;;;6.03;;
46777;SDS011;32536;47.128;8.746;2023-03-01T06:57:38;10.50;;;4.82;;
46777;SDS011;32536;47.128;8.746;2023-03-01T07:00:05;12.60;;;5.10;;
46777;SDS011;32536;47.128;8.746;2023-03-01T07:02:33;12.50;;;5.78;;
46777;SDS011;32536;47.128;8.746;2023-03-01T07:05:00;10.27;;;4.65;;
46777;SDS011;32536;47.128;8.746;2023-03-01T07:07:27;12.10;;;5.25;;
46777;SDS011;32536;47.128;8.746;2023-03-01T07:09:53;11.38;;;4.88;;
46777;SDS011;32536;47.128;8.746;2023-03-01T07:12:20;11.40;;;5.70;;
46777;SDS011;32536;47.128;8.746;2023-03-01T07:14:47;13.18;;;5.57;;
46777;SDS011;32536;47.128;8.746;2023-03-01T07:17:14;15.23;;;5.63;;
46777;SDS011;32536;47.128;8.746;2023-03-01T07:19:40;9.93;;;4.15;;
46777;SDS011;32536;47.128;8.746;2023-03-01T07:22:07;13.50;;;5.30;;
46777;SDS011;32536;47.128;8.746;2023-03-01T07:24:34;10.18;;;4.53;;
46777;SDS011;32536;47.128;8.746;2023-03-01T07:27:01;13.23;;;6.00;;
46777;SDS011;32536;47.128;8.746;2023-03-01T07:29:28;13.00;;;6.03;;
46777;SDS011;32536;47.128;8.746;2023-03-01T07:31:55;14.80;;;7.40;;
46777;SDS011;32536;47.128;8.746;2023-03-01T07:34:22;12.20;;;5.35;;
46777;SDS011;32536;47.128;8.746;2023-03-01T07:36:49;13.02;;;5.43;;
46777;SDS011;32536;47.128;8.746;2023-03-01T07:39:16;13.20;;;5.43;;
46777;SDS011;32536;47.128;8.746;2023-03-01T07:41:43;14.82;;;6.25;;
46777;SDS011;32536;47.128;8.746;2023-03-01T07:44:09;10.38;;;4.85;;
46777;SDS011;32536;47.128;8.746;2023-03-01T07:46:36;10.43;;;4.22;;
46777;SDS011;32536;47.128;8.746;2023-03-01T07:49:03;13.32;;;6.03;;
46777;SDS011;32536;47.128;8.746;2023-03-01T07:51:30;13.88;;;6.10;;
46777;SDS011;32536;47.128;8.746;2023-03-01T07:53:57;13.00;;;5.60;;
46777;SDS011;32536;47.128;8.746;2023-03-01T07:56:24;11.90;;;6.15;;
46777;SDS011;32536;47.128;8.746;2023-03-01T07:58:51;11.10;;;5.00;;
46777;SDS011;32536;47.128;8.746;2023-03-01T08:01:18;9.07;;;4.88;;
46777;SDS011;32536;47.128;8.746;2023-03-01T08:03:47;11.50;;;5.03;;
46777;SDS011;32536;47.128;8.746;2023-03-01T08:06:16;11.25;;;5.13;;
46777;SDS011;32536;47.128;8.746;2023-03-01T08:08:44;13.13;;;6.07;;
46777;SDS011;32536;47.128;8.746;2023-03-01T08:11:11;14.18;;;6.47;;
46777;SDS011;32536;47.128;8.746;2023-03-01T08:13:41;11.95;;;6.15;;
46777;SDS011;32536;47.128;8.746;2023-03-01T08:16:12;14.35;;;5.90;;
46777;SDS011;32536;47.128;8.746;2023-03-01T08:21:09;12.55;;;5.00;;
46777;SDS011;32536;47.128;8.746;2023-03-01T08:23:42;18.02;;;7.07;;
46777;SDS011;32536;47.128;8.746;2023-03-01T08:26:17;13.60;;;5.80;;
46777;SDS011;32536;47.128;8.746;2023-03-01T08:28:46;14.18;;;6.45;;
46777;SDS011;32536;47.128;8.746;2023-03-01T08:31:22;13.88;;;6.22;;
46777;SDS011;32536;47.128;8.746;2023-03-01T08:33:56;12.85;;;6.80;;
46777;SDS011;32536;47.128;8.746;2023-03-01T08:36:26;13.85;;;6.82;;
46777;SDS011;32536;47.128;8.746;2023-03-01T08:38:58;12.02;;;6.10;;
46777;SDS011;32536;47.128;8.746;2023-03-01T08:41:25;9.80;;;4.88;;
46777;SDS011;32536;47.128;8.746;2023-03-01T08:43:53;11.48;;;6.00;;
46777;SDS011;32536;47.128;8.746;2023-03-01T08:46:27;12.07;;;5.35;;
46777;SDS011;32536;47.128;8.746;2023-03-01T08:49:03;14.50;;;6.85;;
46777;SDS011;32536;47.128;8.746;2023-03-01T08:51:32;14.15;;;6.93;;
46777;SDS011;32536;47.128;8.746;2023-03-01T08:54:03;10.63;;;4.80;;
46777;SDS011;32536;47.128;8.746;2023-03-01T08:56:36;13.70;;;5.80;;
46777;SDS011;32536;47.128;8.746;2023-03-01T08:59:03;12.77;;;5.88;;
46777;SDS011;32536;47.128;8.746;2023-03-01T09:01:30;11.65;;;5.82;;
46777;SDS011;32536;47.128;8.746;2023-03-01T09:03:57;12.35;;;5.53;;
46777;SDS011;32536;47.128;8.746;2023-03-01T09:06:24;12.20;;;5.60;;
46777;SDS011;32536;47.128;8.746;2023-03-01T09:08:50;12.20;;;4.70;;
46777;SDS011;32536;47.128;8.746;2023-03-01T09:11:19;12.13;;;5.63;;
46777;SDS011;32536;47.128;8.746;2023-03-01T09:13:47;11.05;;;4.95;;
46777;SDS011;32536;47.128;8.746;2023-03-01T09:16:16;8.27;;;3.97;;
46777;SDS011;32536;47.128;8.746;2023-03-01T09:18:45;15.02;;;6.10;;
46777;SDS011;32536;47.128;8.746;2023-03-01T09:21:18;13.45;;;6.35;;
46777;SDS011;32536;47.128;8.746;2023-03-01T09:23:47;11.73;;;4.80;;
46777;SDS011;32536;47.128;8.746;2023-03-01T09:26:16;12.95;;;6.32;;
46777;SDS011;32536;47.128;8.746;2023-03-01T09:28:46;11.73;;;5.43;;
46777;SDS011;32536;47.128;8.746;2023-03-01T09:31:15;11.88;;;4.80;;
46777;SDS011;32536;47.128;8.746;2023-03-01T09:33:45;10.98;;;5.18;;
46777;SDS011;32536;47.128;8.746;2023-03-01T09:36:15;10.15;;;4.45;;
46777;SDS011;32536;47.128;8.746;2023-03-01T09:38:46;10.30;;;5.15;;
46777;SDS011;32536;47.128;8.746;2023-03-01T09:43:44;11.40;;;5.13;;
46777;SDS011;32536;47.128;8.746;2023-03-01T09:46:20;9.90;;;4.30;;
46777;SDS011;32536;47.128;8.746;2023-03-01T09:48:51;9.95;;;4.20;;
46777;SDS011;32536;47.128;8.746;2023-03-01T09:51:31;11.68;;;5.10;;
46777;SDS011;32536;47.128;8.746;2023-03-01T09:54:01;11.40;;;5.20;;
46777;SDS011;32536;47.128;8.746;2023-03-01T09:56:40;12.25;;;6.07;;
46777;SDS011;32536;47.128;8.746;2023-03-01T10:04:50;11.23;;;4.88;;
46777;SDS011;32536;47.128;8.746;2023-03-01T10:11:02;10.10;;;4.47;;
46777;SDS011;32536;47.128;8.746;2023-03-01T10:13:50;10.57;;;4.75;;
46777;SDS011;32536;47.128;8.746;2023-03-01T10:24:40;14.13;;;5.78;;
46777;SDS011;32536;47.128;8.746;2023-03-01T10:27:09;9.70;;;4.43;;
46777;SDS011;32536;47.128;8.746;2023-03-01T10:32:43;8.15;;;3.65;;
46777;SDS011;32536;47.128;8.746;2023-03-01T10:35:24;10.02;;;4.35;;
46777;SDS011;32536;47.128;8.746;2023-03-01T10:40:37;7.70;;;3.75;;
46777;SDS011;32536;47.128;8.746;2023-03-01T10:43:20;9.90;;;4.53;;
46777;SDS011;32536;47.128;8.746;2023-03-01T10:45:48;10.30;;;4.65;;
46777;SDS011;32536;47.128;8.746;2023-03-01T10:48:16;10.23;;;5.18;;
46777;SDS011;32536;47.128;8.746;2023-03-01T10:50:50;10.18;;;4.10;;
46777;SDS011;32536;47.128;8.746;2023-03-01T10:53:33;9.20;;;4.38;;
46777;SDS011;32536;47.128;8.746;2023-03-01T10:56:22;11.93;;;4.82;;
46777;SDS011;32536;47.128;8.746;2023-03-01T10:59:00;10.35;;;4.20;;
46777;SDS011;32536;47.128;8.746;2023-03-01T11:01:35;10.40;;;4.50;;
46777;SDS011;32536;47.128;8.746;2023-03-01T11:06:35;12.77;;;5.68;;
46777;SDS011;32536;47.128;8.746;2023-03-01T11:09:18;15.00;;;5.82;;
46777;SDS011;32536;47.128;8.746;2023-03-01T11:11:51;10.65;;;4.50;;
46777;SDS011;32536;47.128;8.746;2023-03-01T11:16:49;9.27;;;4.03;;
46777;SDS011;32536;47.128;8.746;2023-03-01T11:19:38;8.90;;;4.40;;
46777;SDS011;32536;47.128;8.746;2023-03-01T11:22:07;6.13;;;2.97;;
46777;SDS011;32536;47.128;8.746;2023-03-01T11:24:46;15.18;;;6.70;;
46777;SDS011;32536;47.128;8.746;2023-03-01T11:30:04;9.38;;;4.07;;
46777;SDS011;32536;47.128;8.746;2023-03-01T11:33:01;8.05;;;3.88;;
46777;SDS011;32536;47.128;8.746;2023-03-01T11:35:50;9.45;;;4.43;;
46777;SDS011;32536;47.128;8.746;2023-03-01T11:38:30;9.35;;;4.47;;
46777;SDS011;32536;47.128;8.746;2023-03-01T11:47:05;10.57;;;4.60;;
46777;SDS011;32536;47.128;8.746;2023-03-01T11:50:07;7.78;;;3.85;;
46777;SDS011;32536;47.128;8.746;2023-03-01T11:56:16;7.35;;;3.63;;
46777;SDS011;32536;47.128;8.746;2023-03-01T12:02:17;9.65;;;4.32;;
46777;SDS011;32536;47.128;8.746;2023-03-01T12:05:13;9.77;;;3.95;;
46777;SDS011;32536;47.128;8.746;2023-03-01T12:20:32;9.43;;;3.67;;
46777;SDS011;32536;47.128;8.746;2023-03-01T12:23:25;9.27;;;4.03;;
46777;SDS011;32536;47.128;8.746;2023-03-01T12:26:16;9.02;;;3.63;;
46777;SDS011;32536;47.128;8.746;2023-03-01T12:32:03;10.77;;;4.90;;
46777;SDS011;32536;47.128;8.746;2023-03-01T12:37:36;9.80;;;4.72;;
46777;SDS011;32536;47.128;8.746;2023-03-01T12:51:34;11.98;;;5.03;;
46777;SDS011;32536;47.128;8.746;2023-03-01T12:54:19;12.68;;;6.38;;
46777;SDS011;32536;47.128;8.746;2023-03-01T12:56:54;11.38;;;6.00;;
46777;SDS011;32536;47.128;8.746;2023-03-01T13:15:48;14.10;;;6.03;;
46777;SDS011;32536;47.128;8.746;2023-03-01T13:20:48;8.05;;;3.58;;
46777;SDS011;32536;47.128;8.746;2023-03-01T13:33:42;9.90;;;4.43;;
46777;SDS011;32536;47.128;8.746;2023-03-01T13:38:55;9.43;;;4.15;;
46777;SDS011;32536;47.128;8.746;2023-03-01T13:49:42;10.70;;;5.00;;
46777;SDS011;32536;47.128;8.746;2023-03-01T13:54:55;11.23;;;5.20;;
46777;SDS011;32536;47.128;8.746;2023-03-01T13:57:25;8.60;;;4.68;;
46777;SDS011;32536;47.128;8.746;2023-03-01T13:59:58;9.38;;;4.40;;
46777;SDS011;32536;47.128;8.746;2023-03-01T14:02:25;9.18;;;4.68;;
46777;SDS011;32536;47.128;8.746;2023-03-01T14:04:58;9.48;;;4.22;;
46777;SDS011;32536;47.128;8.746;2023-03-01T14:07:26;7.72;;;3.55;;
46777;SDS011;32536;47.128;8.746;2023-03-01T14:09:58;7.50;;;3.80;;
46777;SDS011;32536;47.128;8.746;2023-03-01T14:12:36;8.32;;;4.13;;
46777;SDS011;32536;47.128;8.746;2023-03-01T14:21:17;8.13;;;3.42;;
46777;SDS011;32536;47.128;8.746;2023-03-01T14:23:44;8.27;;;4.00;;
46777;SDS011;32536;47.128;8.746;2023-03-01T14:26:12;7.22;;;3.05;;
46777;SDS011;32536;47.128;8.746;2023-03-01T14:28:39;9.52;;;4.10;;
46777;SDS011;32536;47.128;8.746;2023-03-01T14:34:04;10.90;;;4.53;;
46777;SDS011;32536;47.128;8.746;2023-03-01T14:36:33;8.90;;;3.90;;
46777;SDS011;32536;47.128;8.746;2023-03-01T14:39:00;9.13;;;4.55;;
46777;SDS011;32536;47.128;8.746;2023-03-01T14:41:32;7.18;;;3.58;;
46777;SDS011;32536;47.128;8.746;2023-03-01T14:44:05;7.43;;;3.08;;
46777;SDS011;32536;47.128;8.746;2023-03-01T14:46:39;6.88;;;3.25;;
46777;SDS011;32536;47.128;8.746;2023-03-01T14:52:04;5.88;;;3.10;;
46777;SDS011;32536;47.128;8.746;2023-03-01T14:54:44;8.90;;;4.47;;
46777;SDS011;32536;47.128;8.746;2023-03-01T14:57:16;9.45;;;3.70;;
46777;SDS011;32536;47.128;8.746;2023-03-01T14:59:50;7.68;;;4.13;;
46777;SDS011;32536;47.128;8.746;2023-03-01T15:02:24;7.55;;;3.50;;
46777;SDS011;32536;47.128;8.746;2023-03-01T15:04:54;7.20;;;3.17;;
46777;SDS011;32536;47.128;8.746;2023-03-01T15:07:33;8.00;;;3.78;;
46777;SDS011;32536;47.128;8.746;2023-03-01T15:10:05;7.68;;;3.03;;
46777;SDS011;32536;47.128;8.746;2023-03-01T15:12:43;8.55;;;3.40;;
46777;SDS011;32536;47.128;8.746;2023-03-01T15:18:14;9.30;;;4.18;;
46777;SDS011;32536;47.128;8.746;2023-03-01T15:20:44;7.55;;;3.50;;
46777;SDS011;32536;47.128;8.746;2023-03-01T15:23:23;8.60;;;4.45;;
46777;SDS011;32536;47.128;8.746;2023-03-01T15:25:52;8.00;;;3.20;;
46777;SDS011;32536;47.128;8.746;2023-03-01T15:28:25;7.25;;;3.28;;
46777;SDS011;32536;47.128;8.746;2023-03-01T15:30:57;7.93;;;2.97;;
46777;SDS011;32536;47.128;8.746;2023-03-01T15:33:46;6.80;;;3.30;;
46777;SDS011;32536;47.128;8.746;2023-03-01T15:36:33;5.57;;;2.97;;
46777;SDS011;32536;47.128;8.746;2023-03-01T15:42:09;6.43;;;2.83;;
46777;SDS011;32536;47.128;8.746;2023-03-01T15:45:09;6.85;;;3.08;;
46777;SDS011;32536;47.128;8.746;2023-03-01T15:47:39;6.55;;;2.65;;
46777;SDS011;32536;47.128;8.746;2023-03-01T15:50:17;6.63;;;3.10;;
46777;SDS011;32536;47.128;8.746;2023-03-01T15:52:49;8.38;;;3.20;;
46777;SDS011;32536;47.128;8.746;2023-03-01T15:55:24;6.05;;;2.58;;
46777;SDS011;32536;47.128;8.746;2023-03-01T15:57:59;5.60;;;2.75;;
46777;SDS011;32536;47.128;8.746;2023-03-01T16:00:35;5.38;;;2.58;;
46777;SDS011;32536;47.128;8.746;2023-03-01T16:03:03;5.80;;;2.53;;
46777;SDS011;32536;47.128;8.746;2023-03-01T16:05:31;5.50;;;2.78;;
46777;SDS011;32536;47.128;8.746;2023-03-01T16:08:02;5.35;;;2.30;;
46777;SDS011;32536;47.128;8.746;2023-03-01T16:10:31;6.07;;;3.20;;
46777;SDS011;32536;47.128;8.746;2023-03-01T16:12:59;5.90;;;3.22;;
46777;SDS011;32536;47.128;8.746;2023-03-01T16:15:30;7.35;;;3.60;;
46777;SDS011;32536;47.128;8.746;2023-03-01T16:18:00;6.95;;;3.40;;
46777;SDS011;32536;47.128;8.746;2023-03-01T16:20:27;5.50;;;2.50;;
46777;SDS011;32536;47.128;8.746;2023-03-01T16:22:58;5.13;;;2.38;;
46777;SDS011;32536;47.128;8.746;2023-03-01T16:25:27;6.65;;;3.47;;
46777;SDS011;32536;47.128;8.746;2023-03-01T16:27:55;5.60;;;2.28;;
46777;SDS011;32536;47.128;8.746;2023-03-01T16:30:24;6.20;;;3.00;;
46777;SDS011;32536;47.128;8.746;2023-03-01T16:32:50;7.28;;;2.97;;
46777;SDS011;32536;47.128;8.746;2023-03-01T16:35:18;8.38;;;4.25;;
46777;SDS011;32536;47.128;8.746;2023-03-01T16:37:47;6.88;;;2.80;;
46777;SDS011;32536;47.128;8.746;2023-03-01T16:40:19;7.70;;;3.25;;
46777;SDS011;32536;47.128;8.746;2023-03-01T16:42:50;5.35;;;2.35;;
46777;SDS011;32536;47.128;8.746;2023-03-01T16:45:17;4.15;;;2.28;;
46777;SDS011;32536;47.128;8.746;2023-03-01T16:47:45;6.82;;;2.65;;
46777;SDS011;32536;47.128;8.746;2023-03-01T16:50:12;6.60;;;3.53;;
46777;SDS011;32536;47.128;8.746;2023-03-01T16:52:38;5.30;;;2.70;;
46777;SDS011;32536;47.128;8.746;2023-03-01T16:55:06;5.93;;;2.60;;
46777;SDS011;32536;47.128;8.746;2023-03-01T16:57:35;7.28;;;3.08;;
46777;SDS011;32536;47.128;8.746;2023-03-01T17:00:04;6.47;;;2.70;;
46777;SDS011;32536;47.128;8.746;2023-03-01T17:02:35;5.30;;;2.63;;
46777;SDS011;32536;47.128;8.746;2023-03-01T17:05:02;6.30;;;2.83;;
46777;SDS011;32536;47.128;8.746;2023-03-01T17:07:30;8.43;;;3.45;;
46777;SDS011;32536;47.128;8.746;2023-03-01T17:10:03;5.72;;;2.88;;
46777;SDS011;32536;47.128;8.746;2023-03-01T17:12:33;6.45;;;3.38;;
46777;SDS011;32536;47.128;8.746;2023-03-01T17:15:01;5.30;;;2.78;;
46777;SDS011;32536;47.128;8.746;2023-03-01T17:17:30;4.82;;;2.50;;
46777;SDS011;32536;47.128;8.746;2023-03-01T17:19:56;5.68;;;2.63;;
46777;SDS011;32536;47.128;8.746;2023-03-01T17:22:23;6.18;;;3.30;;
46777;SDS011;32536;47.128;8.746;2023-03-01T17:24:50;6.53;;;3.08;;
46777;SDS011;32536;47.128;8.746;2023-03-01T17:27:17;6.60;;;3.03;;
46777;SDS011;32536;47.128;8.746;2023-03-01T17:29:44;7.68;;;3.60;;
46777;SDS011;32536;47.128;8.746;2023-03-01T17:32:10;7.43;;;3.55;;
46777;SDS011;32536;47.128;8.746;2023-03-01T17:34:38;6.53;;;2.80;;
46777;SDS011;32536;47.128;8.746;2023-03-01T17:37:05;7.22;;;3.40;;
46777;SDS011;32536;47.128;8.746;2023-03-01T17:39:31;6.47;;;3.38;;
46777;SDS011;32536;47.128;8.746;2023-03-01T17:42:01;8.30;;;3.65;;
46777;SDS011;32536;47.128;8.746;2023-03-01T17:44:30;8.77;;;3.95;;